Time;durP1;ratioP1;P1;durP2;ratioP2;P2;SDS_P1;SDS_P2;PMS_P1;PMS_P2;Temp;Humidity;BMP_temperature;BMP_pressure;BME280_temperature;BME280_humidity;BME280_pressure;Samples;Min_cycle;Max_cycle;Signal;HPM_P1;HPM_P2
2022/03/05 00:00:25;;;;;;;3.30;2.77;;;1.80;99.90;;;;;;5984690;24;20569;-67
2022/03/05 00:02:53;;;;;;;4.60;2.97;;;1.70;99.90;;;;;;5985834;24;20450;-67
2022/03/05 00:05:21;;;;;;;3.90;3.27;;;1.70;99.90;;;;;;5978115;23;20510;-67
2022/03/05 00:07:49;;;;;;;5.27;3.30;;;1.70;99.90;;;;;;5985893;24;20418;-67
2022/03/05 00:10:19;;;;;;;5.27;3.60;;;1.60;99.90;;;;;;5985981;24;20419;-67
2022/03/05 00:12:48;;;;;;;4.73;2.90;;;1.60;99.90;;;;;;5948989;24;20450;-67
2022/03/05 00:15:16;;;;;;;3.97;3.00;;;1.60;99.90;;;;;;5977363;23;20548;-67
2022/03/05 00:17:44;;;;;;;3.57;2.97;;;1.60;99.90;;;;;;5985092;24;20420;-67
2022/03/05 00:20:12;;;;;;;3.43;2.77;;;1.60;99.90;;;;;;5985472;24;20446;-66
2022/03/05 00:22:40;;;;;;;3.30;2.90;;;1.50;99.90;;;;;;5984809;24;20451;-67
2022/03/05 00:25:10;;;;;;;3.73;2.90;;;1.60;99.90;;;;;;5977095;23;20454;-67
2022/03/05 00:27:38;;;;;;;4.13;3.00;;;1.50;99.90;;;;;;5985030;24;20486;-68
2022/03/05 00:30:08;;;;;;;4.10;3.20;;;1.40;99.90;;;;;;5975507;24;20471;-67
2022/03/05 00:32:37;;;;;;;5.47;2.90;;;1.40;99.90;;;;;;5986408;24;20560;-68
2022/03/05 00:35:06;;;;;;;4.50;3.30;;;1.40;99.90;;;;;;5951243;24;20450;-67
2022/03/05 00:37:35;;;;;;;4.40;2.80;;;1.40;99.90;;;;;;5992144;24;20418;-67
2022/03/05 00:40:04;;;;;;;6.10;3.30;;;1.30;99.90;;;;;;5984693;24;20415;-67
2022/03/05 00:42:32;;;;;;;4.30;3.43;;;1.30;99.90;;;;;;5985938;24;20782;-67
2022/03/05 00:45:00;;;;;;;3.90;2.73;;;1.30;99.90;;;;;;5974861;23;20474;-67
2022/03/05 00:47:29;;;;;;;9.70;3.23;;;1.30;99.90;;;;;;5990353;24;20726;-68
2022/03/05 00:49:57;;;;;;;3.77;3.17;;;1.20;99.90;;;;;;5984783;24;20419;-67
2022/03/05 00:52:25;;;;;;;4.60;3.50;;;1.20;99.90;;;;;;5985370;24;20438;-67
2022/03/05 00:54:53;;;;;;;4.10;3.40;;;1.10;99.90;;;;;;5977587;23;20462;-67
2022/03/05 00:57:21;;;;;;;3.10;2.80;;;1.10;99.90;;;;;;5985278;24;20430;-67
2022/03/05 00:59:49;;;;;;;3.77;3.30;;;1.10;99.90;;;;;;5985297;24;20414;-67
2022/03/05 01:02:16;;;;;;;3.53;3.23;;;1.10;99.90;;;;;;5982998;24;20525;-68
2022/03/05 01:04:46;;;;;;;3.40;3.10;;;1.00;99.90;;;;;;5978347;23;20526;-68
2022/03/05 01:07:14;;;;;;;4.83;3.20;;;1.00;99.90;;;;;;5984202;24;20442;-67
2022/03/05 01:09:42;;;;;;;3.97;3.40;;;1.00;99.90;;;;;;5985004;24;20414;-68
2022/03/05 01:12:10;;;;;;;3.67;3.20;;;1.00;99.90;;;;;;5984579;24;20438;-67
2022/03/05 01:14:38;;;;;;;6.30;3.80;;;1.00;99.90;;;;;;5979189;23;20522;-67
2022/03/05 01:17:07;;;;;;;4.23;3.23;;;1.00;99.90;;;;;;5984974;24;20414;-67
2022/03/05 01:19:35;;;;;;;5.57;3.50;;;1.00;99.90;;;;;;5985993;24;20418;-68
2022/03/05 01:22:05;;;;;;;3.57;3.27;;;0.90;99.90;;;;;;5985376;24;20446;-67
2022/03/05 01:24:32;;;;;;;3.73;3.30;;;0.90;99.90;;;;;;5974470;23;20484;-67
2022/03/05 01:27:00;;;;;;;3.93;3.00;;;0.90;99.90;;;;;;5984677;24;20415;-67
2022/03/05 01:29:28;;;;;;;3.83;3.23;;;1.00;99.90;;;;;;5974507;24;20434;-67
2022/03/05 01:31:56;;;;;;;5.50;3.80;;;0.90;99.90;;;;;;5983364;24;20463;-66
2022/03/05 01:34:24;;;;;;;3.60;3.20;;;1.00;99.90;;;;;;5949105;24;20464;-67
2022/03/05 01:36:52;;;;;;;4.20;3.10;;;0.90;99.90;;;;;;5985839;24;20446;-68
2022/03/05 01:39:21;;;;;;;3.50;3.20;;;0.90;99.90;;;;;;5950334;24;20437;-67
2022/03/05 01:41:51;;;;;;;4.03;2.93;;;0.80;99.90;;;;;;5985267;24;20414;-67
2022/03/05 01:44:20;;;;;;;5.33;3.37;;;0.90;99.90;;;;;;5980960;23;20460;-67
2022/03/05 01:46:48;;;;;;;7.67;3.70;;;0.80;99.90;;;;;;5985836;24;20415;-68
2022/03/05 01:49:17;;;;;;;3.20;2.90;;;0.80;99.90;;;;;;5986377;24;20418;-67
2022/03/05 01:51:45;;;;;;;3.30;2.87;;;0.80;99.90;;;;;;5985507;24;20425;-67
2022/03/05 01:54:14;;;;;;;3.90;2.73;;;0.80;99.90;;;;;;5991086;23;20449;-67
2022/03/05 01:56:44;;;;;;;4.10;3.13;;;0.80;99.90;;;;;;5987602;24;20430;-67
2022/03/05 01:59:12;;;;;;;4.90;3.40;;;0.80;99.90;;;;;;5983749;24;20484;-67
2022/03/05 02:01:40;;;;;;;3.60;3.13;;;0.80;99.90;;;;;;5983329;24;20440;-67
2022/03/05 02:04:09;;;;;;;4.00;3.40;;;0.80;99.90;;;;;;5972929;23;20527;-67
2022/03/05 02:06:36;;;;;;;5.13;3.00;;;0.70;99.90;;;;;;5984832;24;20406;-67
2022/03/05 02:09:04;;;;;;;3.37;3.07;;;0.70;99.90;;;;;;5987123;24;20418;-67
2022/03/05 02:11:32;;;;;;;4.10;3.20;;;0.60;99.90;;;;;;5976449;24;20418;-67
2022/03/05 02:14:02;;;;;;;5.23;3.40;;;0.60;99.90;;;;;;5982470;23;20453;-67
2022/03/05 02:16:30;;;;;;;3.53;2.93;;;0.60;99.90;;;;;;5986820;24;20441;-67
2022/03/05 02:18:58;;;;;;;3.17;2.63;;;0.60;99.90;;;;;;5985694;24;20526;-67
2022/03/05 02:21:28;;;;;;;3.37;2.80;;;0.60;99.90;;;;;;5986769;24;20414;-67
2022/03/05 02:23:56;;;;;;;3.63;2.87;;;0.60;99.90;;;;;;5985166;23;20462;-67
2022/03/05 02:26:24;;;;;;;4.07;3.10;;;0.50;99.90;;;;;;5976009;24;20426;-67
2022/03/05 02:28:52;;;;;;;6.47;3.03;;;0.60;99.90;;;;;;5975285;24;20434;-67
2022/03/05 02:31:20;;;;;;;3.77;2.70;;;0.50;99.90;;;;;;5986638;24;20505;-67
2022/03/05 02:33:52;;;;;;;5.33;3.63;;;0.50;99.90;;;;;;5988885;23;20454;-68
2022/03/05 02:36:21;;;;;;;3.30;2.93;;;0.50;99.90;;;;;;5986139;24;20430;-67
2022/03/05 02:38:50;;;;;;;3.77;3.00;;;0.50;99.90;;;;;;5976279;24;20430;-67
2022/03/05 02:41:19;;;;;;;3.10;2.50;;;0.50;99.90;;;;;;5986814;24;20419;-67
2022/03/05 02:43:47;;;;;;;2.87;2.67;;;0.50;99.90;;;;;;5983164;23;20438;-68
2022/03/05 02:46:15;;;;;;;3.80;3.10;;;0.50;99.90;;;;;;5977462;24;20955;-68
2022/03/05 02:48:43;;;;;;;3.10;2.80;;;0.50;99.90;;;;;;5986722;24;20469;-68
2022/03/05 02:51:11;;;;;;;3.70;2.93;;;0.40;99.90;;;;;;5986058;24;20445;-67
2022/03/05 02:53:39;;;;;;;3.30;3.00;;;0.40;99.90;;;;;;5985720;23;20430;-67
2022/03/05 02:56:09;;;;;;;3.60;3.20;;;0.40;99.90;;;;;;5951752;24;20461;-67
2022/03/05 02:58:37;;;;;;;4.47;3.20;;;0.40;99.90;;;;;;5986382;24;20427;-67
2022/03/05 03:01:05;;;;;;;6.70;3.20;;;0.40;99.90;;;;;;5989454;24;20498;-68
2022/03/05 03:03:33;;;;;;;2.73;2.53;;;0.30;99.90;;;;;;5985384;23;20751;-67
2022/03/05 03:06:01;;;;;;;3.20;2.87;;;0.30;99.90;;;;;;5976610;24;20414;-67
2022/03/05 03:08:29;;;;;;;3.23;2.80;;;0.30;99.90;;;;;;5985467;24;20439;-67
2022/03/05 03:10:57;;;;;;;4.10;3.00;;;0.30;99.90;;;;;;5985198;24;20498;-67
2022/03/05 03:13:27;;;;;;;3.97;2.80;;;0.20;99.90;;;;;;5985967;24;20461;-68
2022/03/05 03:15:54;;;;;;;4.47;2.53;;;0.20;99.90;;;;;;5974313;23;20522;-67
2022/03/05 03:18:22;;;;;;;2.73;2.53;;;0.20;99.90;;;;;;5985357;24;20419;-68
2022/03/05 03:20:50;;;;;;;4.03;2.57;;;0.10;99.90;;;;;;5985329;24;20418;-68
2022/03/05 03:23:18;;;;;;;4.83;3.00;;;0.10;99.90;;;;;;5960885;24;20507;-68
2022/03/05 03:25:46;;;;;;;4.70;2.90;;;0.00;99.90;;;;;;5976935;23;20446;-68
2022/03/05 03:28:14;;;;;;;3.13;2.83;;;0.00;99.90;;;;;;5986044;24;20423;-68
2022/03/05 03:30:43;;;;;;;4.40;3.20;;;0.00;99.90;;;;;;5976699;24;20454;-68
2022/03/05 03:33:11;;;;;;;4.23;2.70;;;0.00;99.90;;;;;;5985932;24;20449;-68
2022/03/05 03:35:39;;;;;;;3.20;2.73;;;0.00;99.90;;;;;;5950871;24;20488;-68
2022/03/05 03:38:07;;;;;;;3.33;3.03;;;-0.10;99.90;;;;;;5986522;24;20485;-68
2022/03/05 03:40:34;;;;;;;6.37;3.07;;;-0.10;99.90;;;;;;5986367;24;20445;-67
2022/03/05 03:43:02;;;;;;;3.57;3.10;;;-0.20;99.90;;;;;;5988203;24;20444;-68
2022/03/05 03:45:30;;;;;;;3.50;3.20;;;-0.20;99.90;;;;;;5978695;23;20454;-68
2022/03/05 03:48:00;;;;;;;3.10;2.50;;;-0.20;99.90;;;;;;5989377;24;20494;-68
2022/03/05 03:50:27;;;;;;;4.27;3.33;;;-0.20;99.90;;;;;;5988351;24;20422;-68
2022/03/05 03:52:55;;;;;;;3.00;2.80;;;-0.20;99.90;;;;;;5987287;24;20796;-68
2022/03/05 03:55:24;;;;;;;3.83;2.80;;;-0.20;99.90;;;;;;5980467;23;20486;-68
2022/03/05 03:57:52;;;;;;;5.50;3.10;;;-0.20;99.90;;;;;;5988651;24;20414;-68
2022/03/05 04:00:22;;;;;;;4.07;3.17;;;-0.10;99.90;;;;;;5987989;24;20444;-68
2022/03/05 04:02:50;;;;;;;3.10;2.80;;;-0.20;99.90;;;;;;5988785;24;20517;-68
2022/03/05 04:05:20;;;;;;;4.00;2.60;;;-0.20;99.90;;;;;;5978901;23;20505;-68
2022/03/05 04:10:33;;;;;;;5.03;2.67;;;-0.20;99.90;;;;;;5988307;24;20422;-68
2022/03/05 04:13:01;;;;;;;2.97;2.67;;;-0.20;99.90;;;;;;5987967;24;20435;-68
2022/03/05 04:15:29;;;;;;;6.50;2.80;;;-0.10;99.90;;;;;;5979039;23;20506;-68
2022/03/05 04:17:57;;;;;;;3.97;2.80;;;-0.20;99.90;;;;;;5987906;24;20407;-68
2022/03/05 04:20:26;;;;;;;3.13;2.83;;;-0.20;99.90;;;;;;5988532;24;20419;-68
2022/03/05 04:22:54;;;;;;;4.80;3.03;;;-0.20;99.90;;;;;;5977555;24;20449;-68
2022/03/05 04:25:22;;;;;;;4.73;3.13;;;-0.20;99.90;;;;;;5980056;23;20533;-68
2022/03/05 04:27:50;;;;;;;6.93;3.70;;;-0.20;99.90;;;;;;5987523;24;20442;-68
2022/03/05 04:30:18;;;;;;;3.77;3.17;;;-0.20;99.90;;;;;;5986323;23;20422;-68
2022/03/05 04:32:46;;;;;;;5.60;2.60;;;-0.20;99.90;;;;;;5963415;24;20446;-68
2022/03/05 04:35:14;;;;;;;3.50;3.10;;;-0.20;99.90;;;;;;5980308;23;20454;-68
2022/03/05 04:37:44;;;;;;;4.77;3.20;;;-0.30;99.90;;;;;;5987587;24;20445;-68
2022/03/05 04:40:12;;;;;;;4.27;2.90;;;-0.30;99.90;;;;;;5987740;24;20418;-68
2022/03/05 04:42:40;;;;;;;5.33;3.10;;;-0.30;99.90;;;;;;5987210;24;20430;-68
2022/03/05 04:45:09;;;;;;;6.70;2.90;;;-0.30;99.90;;;;;;5975536;23;20450;-68
2022/03/05 04:47:37;;;;;;;3.63;3.30;;;-0.40;99.90;;;;;;5989020;24;20486;-68
2022/03/05 04:50:06;;;;;;;3.60;2.97;;;-0.40;99.90;;;;;;5987455;24;20621;-68
2022/03/05 04:52:34;;;;;;;3.40;3.00;;;-0.40;99.90;;;;;;5988601;24;20438;-68
2022/03/05 04:55:04;;;;;;;3.90;3.10;;;-0.40;99.90;;;;;;5981464;23;20457;-68
2022/03/05 04:57:32;;;;;;;5.23;2.93;;;-0.40;99.90;;;;;;5988153;24;20445;-68
2022/03/05 05:00:00;;;;;;;6.53;2.80;;;-0.40;99.90;;;;;;5986808;24;20414;-68
2022/03/05 05:02:28;;;;;;;3.63;3.00;;;-0.40;99.90;;;;;;5953460;24;20442;-68
2022/03/05 05:04:56;;;;;;;4.63;3.40;;;-0.40;99.90;;;;;;5981135;23;20470;-68
2022/03/05 05:07:24;;;;;;;3.73;3.17;;;-0.50;99.90;;;;;;5987336;24;20418;-68
2022/03/05 05:09:53;;;;;;;3.90;3.50;;;-0.50;99.90;;;;;;5988207;24;20423;-68
2022/03/05 05:12:22;;;;;;;3.83;2.97;;;-0.50;99.90;;;;;;5987813;24;20434;-68
2022/03/05 05:14:50;;;;;;;5.93;3.23;;;-0.50;99.90;;;;;;5982328;23;20463;-68
2022/03/05 05:17:18;;;;;;;8.23;3.40;;;-0.50;99.90;;;;;;5986932;24;20434;-68
2022/03/05 05:19:46;;;;;;;4.03;3.20;;;-0.60;99.90;;;;;;5986695;24;20784;-68
2022/03/05 05:22:14;;;;;;;3.17;2.87;;;-0.60;99.90;;;;;;5988120;24;20438;-68
2022/03/05 05:24:42;;;;;;;3.20;2.87;;;-0.60;99.90;;;;;;5981742;23;20510;-68
2022/03/05 05:27:11;;;;;;;4.20;3.27;;;-0.60;99.90;;;;;;5988402;24;20411;-68
2022/03/05 05:29:40;;;;;;;9.87;3.87;;;-0.60;99.90;;;;;;5987211;24;20498;-68
2022/03/05 05:32:10;;;;;;;3.03;2.73;;;-0.60;99.90;;;;;;5988734;24;20473;-68
2022/03/05 05:34:39;;;;;;;3.90;3.50;;;-0.60;99.90;;;;;;5983160;23;20454;-68
2022/03/05 05:37:14;;;;;;;5.30;3.70;;;-0.60;99.90;;;;;;5986644;24;20444;-68
2022/03/05 05:39:42;;;;;;;3.97;3.33;;;-0.60;99.90;;;;;;5987099;24;20871;-68
2022/03/05 05:42:11;;;;;;;4.70;4.20;;;-0.60;99.90;;;;;;5987202;24;20458;-68
2022/03/05 05:44:40;;;;;;;5.00;3.30;;;-0.60;99.90;;;;;;5983301;23;20455;-68
2022/03/05 05:47:09;;;;;;;6.90;4.23;;;-0.60;99.90;;;;;;5986423;24;20506;-68
2022/03/05 05:49:37;;;;;;;3.93;3.50;;;-0.50;99.90;;;;;;5985110;24;20615;-68
2022/03/05 05:52:06;;;;;;;6.10;4.17;;;-0.50;99.90;;;;;;5986060;24;20417;-68
2022/03/05 05:54:34;;;;;;;4.47;4.03;;;-0.50;99.90;;;;;;5982820;23;20462;-68
2022/03/05 05:57:03;;;;;;;7.00;4.37;;;-0.50;99.90;;;;;;5988594;24;20490;-68
2022/03/05 05:59:31;;;;;;;5.33;4.30;;;-0.40;99.90;;;;;;5986945;24;20422;-68
2022/03/05 06:02:01;;;;;;;5.20;3.97;;;-0.40;99.90;;;;;;5986483;24;20442;-68
2022/03/05 06:04:29;;;;;;;5.93;3.93;;;-0.40;99.90;;;;;;5952159;24;20477;-67
2022/03/05 06:06:58;;;;;;;4.47;4.00;;;-0.40;99.90;;;;;;5988410;24;20414;-67
2022/03/05 06:09:26;;;;;;;8.23;4.67;;;-0.40;99.90;;;;;;5987731;24;20486;-66
2022/03/05 06:11:54;;;;;;;6.40;4.10;;;-0.40;99.90;;;;;;5952075;24;20487;-67
2022/03/05 06:14:23;;;;;;;5.17;4.30;;;-0.30;99.90;;;;;;5981439;23;20477;-67
2022/03/05 06:16:51;;;;;;;5.73;4.23;;;-0.30;99.90;;;;;;5986941;24;20453;-68
2022/03/05 06:19:20;;;;;;;4.67;4.27;;;-0.30;99.90;;;;;;5987152;24;20414;-69
2022/03/05 06:21:48;;;;;;;7.10;4.50;;;-0.30;99.90;;;;;;5991632;24;20415;-67
2022/03/05 06:24:16;;;;;;;6.10;5.27;;;-0.30;99.90;;;;;;5987405;23;20446;-67
2022/03/05 06:26:43;;;;;;;7.10;4.63;;;-0.30;99.90;;;;;;5999878;24;20445;-67
2022/03/05 06:29:11;;;;;;;4.63;4.23;;;-0.20;99.90;;;;;;5998534;24;20415;-67
2022/03/05 06:31:39;;;;;;;5.10;4.60;;;-0.10;99.90;;;;;;5988200;24;20414;-67
2022/03/05 06:34:07;;;;;;;5.17;4.63;;;-0.10;99.90;;;;;;5984465;23;20462;-67
2022/03/05 06:36:37;;;;;;;7.50;5.23;;;-0.20;99.90;;;;;;5988012;24;20502;-67
2022/03/05 06:39:04;;;;;;;5.73;5.00;;;-0.10;99.90;;;;;;5987360;24;20430;-69
2022/03/05 06:41:32;;;;;;;6.33;4.63;;;0.00;99.90;;;;;;5985550;24;20962;-69
2022/03/05 06:44:00;;;;;;;8.27;5.23;;;0.00;99.90;;;;;;5976695;23;20482;-67
2022/03/05 06:46:28;;;;;;;7.53;5.37;;;0.00;99.90;;;;;;5986728;24;20442;-69
2022/03/05 06:48:56;;;;;;;6.10;5.20;;;0.00;99.90;;;;;;5986109;24;20414;-66
2022/03/05 06:51:24;;;;;;;7.93;5.80;;;0.00;99.90;;;;;;5984268;24;20418;-66
2022/03/05 06:53:53;;;;;;;8.10;5.57;;;0.10;99.90;;;;;;5984735;23;20450;-67
2022/03/05 06:56:21;;;;;;;6.20;5.20;;;0.10;99.90;;;;;;5978317;24;20454;-67
2022/03/05 06:58:49;;;;;;;9.33;5.13;;;0.10;99.90;;;;;;5988533;24;20441;-67
2022/03/05 07:01:16;;;;;;;10.37;5.43;;;0.20;99.90;;;;;;5987103;24;20419;-67
2022/03/05 07:03:47;;;;;;;7.43;5.63;;;0.20;99.90;;;;;;5981869;23;20568;-67
2022/03/05 07:06:15;;;;;;;7.20;5.00;;;0.20;99.90;;;;;;5959051;24;20421;-68
2022/03/05 07:08:43;;;;;;;8.40;5.23;;;0.20;99.90;;;;;;5988650;24;20467;-67
2022/03/05 07:11:12;;;;;;;12.30;5.30;;;0.20;99.90;;;;;;5987950;24;20418;-67
2022/03/05 07:13:40;;;;;;;7.77;5.30;;;0.20;99.90;;;;;;5985556;23;20517;-67
2022/03/05 07:16:08;;;;;;;8.80;5.83;;;0.20;99.90;;;;;;5986391;24;20423;-67
2022/03/05 07:18:36;;;;;;;7.03;5.17;;;0.20;99.90;;;;;;5987374;24;20510;-68
2022/03/05 07:21:04;;;;;;;7.20;4.90;;;0.20;99.90;;;;;;5987259;24;20414;-67
2022/03/05 07:23:32;;;;;;;7.83;5.20;;;0.30;99.90;;;;;;5974274;23;21310;-67
2022/03/05 07:26:00;;;;;;;6.80;5.17;;;0.30;99.90;;;;;;5978399;24;20418;-67
2022/03/05 07:28:29;;;;;;;7.37;5.80;;;0.40;99.90;;;;;;5984208;24;20470;-69
2022/03/05 07:30:57;;;;;;;6.93;5.23;;;0.40;99.90;;;;;;5975238;24;20423;-67
2022/03/05 07:33:26;;;;;;;7.93;5.67;;;0.40;99.90;;;;;;5982213;24;20458;-67
2022/03/05 07:35:55;;;;;;;6.20;5.20;;;0.40;99.90;;;;;;5973359;23;20454;-68
2022/03/05 07:38:23;;;;;;;9.93;5.00;;;0.40;99.90;;;;;;5986379;24;20529;-67
2022/03/05 07:40:51;;;;;;;7.33;4.93;;;0.40;99.90;;;;;;5984880;24;20422;-67
2022/03/05 07:43:19;;;;;;;8.03;5.00;;;0.50;99.90;;;;;;5975751;24;20458;-67
2022/03/05 07:45:48;;;;;;;6.53;5.23;;;0.50;99.90;;;;;;5974441;23;20446;-67
2022/03/05 07:48:19;;;;;;;5.90;5.30;;;0.50;99.90;;;;;;5984565;24;20460;-70
2022/03/05 07:50:47;;;;;;;9.13;5.37;;;0.60;99.90;;;;;;5985205;24;20456;-68
2022/03/05 07:53:16;;;;;;;9.13;5.37;;;0.60;99.90;;;;;;5976084;24;20464;-68
2022/03/05 07:55:44;;;;;;;6.60;5.10;;;0.70;99.90;;;;;;5976647;23;20506;-68
2022/03/05 07:58:12;;;;;;;7.40;5.40;;;0.70;99.90;;;;;;5985992;24;20533;-67
2022/03/05 08:00:40;;;;;;;5.63;4.73;;;0.70;99.90;;;;;;5984548;24;20426;-68
2022/03/05 08:03:09;;;;;;;9.73;5.50;;;0.80;99.90;;;;;;5975205;24;20481;-67
2022/03/05 08:05:37;;;;;;;6.63;4.80;;;0.90;99.90;;;;;;5977589;23;20805;-67
2022/03/05 08:08:05;;;;;;;6.23;5.00;;;1.00;99.90;;;;;;5952071;24;20433;-67
2022/03/05 08:10:33;;;;;;;7.93;5.10;;;1.10;99.90;;;;;;5977585;24;20430;-67
2022/03/05 08:13:01;;;;;;;8.13;5.30;;;1.10;99.90;;;;;;5983668;24;20435;-67
2022/03/05 08:15:29;;;;;;;6.23;4.77;;;1.20;99.90;;;;;;5971899;23;20940;-67
2022/03/05 08:18:00;;;;;;;6.50;4.93;;;1.30;99.90;;;;;;5984928;24;21033;-67
2022/03/05 08:20:31;;;;;;;7.23;4.97;;;1.30;99.90;;;;;;5985225;24;20450;-67
2022/03/05 08:23:00;;;;;;;7.37;5.57;;;1.30;99.90;;;;;;5984449;24;20498;-69
2022/03/05 08:25:29;;;;;;;9.40;6.57;;;1.40;99.90;;;;;;5974595;23;20458;-68
2022/03/05 08:27:57;;;;;;;8.30;6.27;;;1.50;99.90;;;;;;5983830;24;20518;-68
2022/03/05 08:30:25;;;;;;;6.30;5.37;;;1.50;99.90;;;;;;5983074;24;20418;-68
2022/03/05 08:32:53;;;;;;;7.03;5.40;;;1.60;99.90;;;;;;5985442;24;20446;-68
2022/03/05 08:35:21;;;;;;;7.23;5.20;;;1.70;99.90;;;;;;5974951;23;20450;-68
2022/03/05 08:37:50;;;;;;;9.00;5.50;;;1.80;99.90;;;;;;5983602;24;20474;-67
2022/03/05 08:40:20;;;;;;;7.30;5.33;;;1.80;99.90;;;;;;5986598;24;20442;-67
2022/03/05 08:42:49;;;;;;;7.17;5.17;;;1.90;99.90;;;;;;5987370;24;20486;-67
2022/03/05 08:45:17;;;;;;;8.73;5.00;;;2.00;99.90;;;;;;5979492;23;20454;-68
2022/03/05 08:47:45;;;;;;;5.63;5.00;;;2.00;99.90;;;;;;5985306;24;20475;-68
2022/03/05 08:50:14;;;;;;;9.23;5.13;;;2.10;99.90;;;;;;5977427;24;20410;-69
2022/03/05 08:52:42;;;;;;;6.73;5.37;;;2.10;99.90;;;;;;5986045;24;20438;-68
2022/03/05 08:55:13;;;;;;;12.13;5.73;;;2.20;99.90;;;;;;5977862;23;20532;-67
2022/03/05 08:57:41;;;;;;;10.77;5.93;;;2.30;99.90;;;;;;5986363;24;20506;-68
2022/03/05 09:00:11;;;;;;;7.93;6.50;;;2.30;99.90;;;;;;5986526;24;20446;-67
2022/03/05 09:02:39;;;;;;;8.00;5.00;;;2.40;99.90;;;;;;5952161;24;20458;-68
2022/03/05 09:05:08;;;;;;;7.60;5.20;;;2.50;99.90;;;;;;5979575;23;20458;-68
2022/03/05 09:07:36;;;;;;;10.00;5.60;;;2.50;99.90;;;;;;5986355;24;20439;-67
2022/03/05 09:10:04;;;;;;;7.47;5.80;;;2.60;99.90;;;;;;5951070;24;20426;-69
2022/03/05 09:12:33;;;;;;;9.47;5.80;;;2.70;99.90;;;;;;5977589;24;20817;-69
2022/03/05 09:15:01;;;;;;;7.10;6.13;;;2.70;99.90;;;;;;5975087;23;20850;-70
2022/03/05 09:17:29;;;;;;;9.23;5.80;;;2.80;99.90;;;;;;5986415;24;20425;-69
2022/03/05 09:19:57;;;;;;;7.87;6.20;;;2.90;99.90;;;;;;5985678;24;20494;-70
2022/03/05 09:22:26;;;;;;;7.33;6.10;;;2.90;99.90;;;;;;5987106;24;20502;-69
2022/03/05 09:24:54;;;;;;;7.40;6.00;;;3.00;99.90;;;;;;5979524;23;20469;-68
2022/03/05 09:27:24;;;;;;;9.40;6.27;;;3.10;99.90;;;;;;5985384;24;20417;-69
2022/03/05 09:29:53;;;;;;;8.43;6.50;;;3.20;99.90;;;;;;5985892;24;20418;-68
2022/03/05 09:32:21;;;;;;;7.00;6.17;;;3.30;99.90;;;;;;5981101;24;20442;-67
2022/03/05 09:34:49;;;;;;;10.00;6.47;;;3.40;99.90;;;;;;5976430;23;20525;-68
2022/03/05 09:37:17;;;;;;;7.43;6.70;;;3.40;99.90;;;;;;5982364;24;20423;-68
2022/03/05 09:39:47;;;;;;;8.23;6.73;;;3.50;99.90;;;;;;5982836;24;20476;-68
2022/03/05 09:42:15;;;;;;;9.30;7.20;;;3.60;99.90;;;;;;5982017;24;20434;-68
2022/03/05 09:44:43;;;;;;;10.10;7.10;;;3.70;99.90;;;;;;5948805;24;20461;-68
2022/03/05 09:47:13;;;;;;;9.60;6.50;;;3.80;99.90;;;;;;5985195;24;20414;-68
2022/03/05 09:49:41;;;;;;;8.43;7.03;;;3.90;99.90;;;;;;5986892;24;20419;-68
2022/03/05 09:52:10;;;;;;;8.17;6.60;;;4.00;99.90;;;;;;5987426;24;20462;-67
2022/03/05 09:54:39;;;;;;;11.17;7.47;;;4.00;99.90;;;;;;5951901;24;20446;-68
2022/03/05 09:57:12;;;;;;;12.83;7.30;;;4.10;99.90;;;;;;5984069;24;20493;-68
2022/03/05 09:59:41;;;;;;;9.37;7.40;;;4.10;99.90;;;;;;5984356;24;20434;-68
2022/03/05 10:02:12;;;;;;;9.37;7.33;;;4.20;99.90;;;;;;5979324;24;20510;-68
2022/03/05 10:04:41;;;;;;;13.70;7.60;;;4.30;99.90;;;;;;5975490;23;20461;-67
2022/03/05 10:07:11;;;;;;;9.57;7.50;;;4.30;99.90;;;;;;5981317;24;20410;-70
2022/03/05 10:09:40;;;;;;;9.07;7.50;;;4.40;99.90;;;;;;5981520;24;20421;-67
2022/03/05 10:12:26;;;;;;;10.33;7.23;;;4.40;99.90;;;;;;5986969;24;20430;-68
2022/03/05 10:15:08;;;;;;;11.23;8.67;;;4.60;99.90;;;;;;5981879;23;20457;-67
2022/03/05 10:17:53;;;;;;;9.20;7.03;;;4.70;99.90;;;;;;5986164;24;20406;-69
2022/03/05 10:20:22;;;;;;;8.30;7.37;;;4.90;99.90;;;;;;5983993;24;20448;-67
2022/03/05 10:22:56;;;;;;;9.00;7.60;;;5.10;99.90;;;;;;5987811;24;20513;-70
2022/03/05 10:25:32;;;;;;;9.87;8.10;;;5.10;99.90;;;;;;5978981;23;20462;-69
2022/03/05 10:28:05;;;;;;;9.43;7.83;;;5.10;99.90;;;;;;5988275;24;20438;-68
2022/03/05 10:30:35;;;;;;;9.50;7.40;;;5.30;99.90;;;;;;5980065;24;20418;-70
2022/03/05 10:33:05;;;;;;;7.67;6.80;;;5.40;99.90;;;;;;5989588;24;20453;-69
2022/03/05 10:35:33;;;;;;;8.30;7.50;;;5.50;99.90;;;;;;5980025;23;20462;-68
2022/03/05 10:38:01;;;;;;;10.37;8.40;;;5.50;99.90;;;;;;5990585;24;20419;-68
2022/03/05 10:40:31;;;;;;;7.50;6.70;;;5.60;99.90;;;;;;5989397;24;20477;-69
2022/03/05 10:43:01;;;;;;;9.20;7.50;;;5.60;99.90;;;;;;5990014;24;20781;-69
2022/03/05 10:45:30;;;;;;;9.70;7.53;;;5.60;99.90;;;;;;5955151;24;20477;-68
2022/03/05 10:48:00;;;;;;;8.03;7.20;;;5.80;99.90;;;;;;5988584;24;20410;-69
2022/03/05 10:50:31;;;;;;;11.33;7.53;;;5.90;99.90;;;;;;5989410;24;20422;-68
2022/03/05 10:53:01;;;;;;;10.83;7.50;;;6.10;99.90;;;;;;5990099;24;20450;-68
2022/03/05 10:55:36;;;;;;;8.30;7.50;;;6.30;99.90;;;;;;5954161;24;20454;-68
2022/03/05 10:58:13;;;;;;;11.53;7.37;;;6.40;99.90;;;;;;5989261;24;20401;-69
2022/03/05 11:00:42;;;;;;;7.33;6.43;;;6.60;99.90;;;;;;5978894;24;20442;-68
2022/03/05 11:03:11;;;;;;;9.87;7.40;;;6.80;99.90;;;;;;5989840;24;20434;-68
2022/03/05 11:05:40;;;;;;;7.80;7.10;;;6.80;99.90;;;;;;5980249;23;20505;-68
2022/03/05 11:08:10;;;;;;;9.40;7.83;;;7.00;99.90;;;;;;5989697;24;20452;-68
2022/03/05 11:10:38;;;;;;;8.17;7.37;;;7.10;99.90;;;;;;5978634;24;20430;-68
2022/03/05 11:13:07;;;;;;;7.93;7.10;;;7.20;99.90;;;;;;5988498;24;20486;-68
2022/03/05 11:15:35;;;;;;;8.70;7.90;;;7.20;99.90;;;;;;5980287;23;20453;-68
2022/03/05 11:18:05;;;;;;;7.50;6.80;;;7.30;99.90;;;;;;5989735;24;20509;-68
2022/03/05 11:20:34;;;;;;;7.77;7.03;;;7.20;99.90;;;;;;5980588;24;20465;-67
2022/03/05 11:23:04;;;;;;;8.23;7.43;;;7.20;99.90;;;;;;5989292;24;20434;-67
2022/03/05 11:25:33;;;;;;;7.30;6.60;;;7.10;99.90;;;;;;5980293;23;20447;-68
2022/03/05 11:28:04;;;;;;;7.70;6.90;;;7.20;99.90;;;;;;5989538;24;20419;-67
2022/03/05 11:30:41;;;;;;;7.00;6.30;;;7.30;99.90;;;;;;5979251;24;20913;-67
2022/03/05 11:33:10;;;;;;;8.80;7.57;;;7.20;99.90;;;;;;5988040;24;20446;-66
2022/03/05 11:35:43;;;;;;;7.77;6.97;;;7.10;99.90;;;;;;5979921;23;20453;-68
2022/03/05 11:38:34;;;;;;;8.00;6.70;;;7.10;99.90;;;;;;5954887;24;20430;-68
2022/03/05 11:41:07;;;;;;;7.80;7.20;;;7.30;99.90;;;;;;5988982;24;21021;-68
2022/03/05 11:43:43;;;;;;;7.50;6.47;;;7.50;99.90;;;;;;5986380;23;20486;-67
2022/03/05 11:46:22;;;;;;;8.57;7.67;;;7.70;99.90;;;;;;5989989;24;20501;-67
2022/03/05 11:49:01;;;;;;;8.00;7.20;;;7.70;99.90;;;;;;5977229;23;20486;-68
2022/03/05 11:51:29;;;;;;;8.53;7.73;;;7.60;99.90;;;;;;5988816;24;20399;-67
2022/03/05 11:54:13;;;;;;;7.37;6.53;;;7.80;99.90;;;;;;5986291;23;20465;-68
2022/03/05 11:57:03;;;;;;;8.37;7.10;;;8.00;99.90;;;;;;5988597;24;20417;-67
2022/03/05 11:59:35;;;;;;;7.00;6.30;;;8.20;99.90;;;;;;5979827;24;20482;-67
2022/03/05 12:02:04;;;;;;;7.60;6.67;;;8.30;99.90;;;;;;5987037;24;20502;-67
2022/03/05 12:04:33;;;;;;;7.80;6.90;;;8.40;99.90;;;;;;5977318;23;20967;-67
2022/03/05 12:07:03;;;;;;;6.77;6.00;;;8.70;99.90;;;;;;5986934;24;20470;-67
2022/03/05 12:09:44;;;;;;;6.73;6.10;;;8.80;99.90;;;;;;5987698;24;20904;-67
2022/03/05 12:12:14;;;;;;;9.53;6.67;;;9.10;99.90;;;;;;5983431;24;20435;-67
2022/03/05 12:15:13;;;;;;;6.67;6.10;;;9.40;99.90;;;;;;5982291;23;20474;-66
2022/03/05 12:17:50;;;;;;;7.30;6.17;;;9.60;99.90;;;;;;5989369;24;20411;-69
2022/03/05 12:20:21;;;;;;;6.60;5.90;;;9.70;99.90;;;;;;5988972;24;20441;-69
2022/03/05 12:22:52;;;;;;;6.50;6.00;;;10.20;99.90;;;;;;5988665;24;20470;-67
2022/03/05 12:25:22;;;;;;;7.33;6.63;;;10.90;99.90;;;;;;5981280;23;20454;-67
2022/03/05 12:27:51;;;;;;;6.60;6.10;;;11.60;99.90;;;;;;5989402;24;20414;-69
2022/03/05 12:30:23;;;;;;;7.30;6.63;;;12.60;99.90;;;;;;5987512;24;20410;-67
2022/03/05 12:32:52;;;;;;;7.47;6.80;;;13.30;99.90;;;;;;5988623;24;20502;-66
2022/03/05 12:35:22;;;;;;;7.33;6.73;;;14.00;99.90;;;;;;5954281;24;20502;-68
2022/03/05 12:37:50;;;;;;;7.80;7.17;;;14.60;99.90;;;;;;5978359;24;20457;-68
2022/03/05 12:40:18;;;;;;;7.00;6.50;;;16.60;99.90;;;;;;5987793;24;20422;-68
2022/03/05 12:42:50;;;;;;;6.50;6.00;;;18.80;96.10;;;;;;5989173;24;20844;-68
2022/03/05 12:45:24;;;;;;;6.73;6.23;;;20.90;91.30;;;;;;5981593;23;20456;-68
2022/03/05 12:47:53;;;;;;;6.57;6.13;;;22.90;80.80;;;;;;5988531;24;20401;-68
2022/03/05 12:50:30;;;;;;;5.93;5.53;;;24.30;69.10;;;;;;5988510;24;20501;-68
2022/03/05 12:53:04;;;;;;;7.00;6.40;;;25.30;67.30;;;;;;5988456;24;20559;-68
2022/03/05 12:55:35;;;;;;;5.77;5.37;;;26.00;57.60;;;;;;5978364;23;20446;-69
2022/03/05 12:58:10;;;;;;;5.83;5.43;;;26.60;56.00;;;;;;5989165;24;20415;-69
2022/03/05 13:00:38;;;;;;;5.57;5.17;;;26.90;56.50;;;;;;5988368;24;20412;-69
2022/03/05 13:03:08;;;;;;;5.70;5.40;;;25.70;54.60;;;;;;5988069;24;20437;-68
2022/03/05 13:05:36;;;;;;;5.70;5.20;;;25.40;53.50;;;;;;5979701;23;20457;-68